sensor_id;sensor_type;location;lat;lon;timestamp;noise_LAeq;noise_LA_min;noise_LA_max;noise_LA01;noise_LA95
67324;Laerm;57667;51.438;5.968;2023-03-19T00:00:06;35.31;31.66;42.44;;
67324;Laerm;57667;51.438;5.968;2023-03-19T00:00:19;35.35;31.36;41.20;;
67324;Laerm;57667;51.438;5.968;2023-03-19T00:00:29;33.36;30.80;43.46;;
67324;Laerm;57667;51.438;5.968;2023-03-19T00:00:39;36.26;31.06;41.41;;
67324;Laerm;57667;51.438;5.968;2023-03-19T00:00:50;34.04;31.58;40.33;;
67324;Laerm;57667;51.438;5.968;2023-03-19T00:01:04;35.54;32.21;42.18;;
67324;Laerm;57667;51.438;5.968;2023-03-19T00:01:15;39.85;36.66;44.29;;
67324;Laerm;57667;51.438;5.968;2023-03-19T00:01:25;48.39;40.22;53.23;;
67324;Laerm;57667;51.438;5.968;2023-03-19T00:01:35;50.54;37.21;55.99;;
67324;Laerm;57667;51.438;5.968;2023-03-19T00:01:46;36.85;33.03;46.37;;
67324;Laerm;57667;51.438;5.968;2023-03-19T00:01:56;35.69;32.35;42.12;;
67324;Laerm;57667;51.438;5.968;2023-03-19T00:02:07;34.53;31.97;37.26;;
67324;Laerm;57667;51.438;5.968;2023-03-19T00:02:18;36.10;32.03;41.92;;
67324;Laerm;57667;51.438;5.968;2023-03-19T00:02:28;40.64;32.46;62.12;;
67324;Laerm;57667;51.438;5.968;2023-03-19T00:02:38;35.16;30.75;43.34;;
67324;Laerm;57667;51.438;5.968;2023-03-19T00:02:50;34.58;30.87;41.87;;
67324;Laerm;57667;51.438;5.968;2023-03-19T00:03:01;36.24;30.85;56.94;;
67324;Laerm;57667;51.438;5.968;2023-03-19T00:03:11;33.47;31.29;36.11;;
67324;Laerm;57667;51.438;5.968;2023-03-19T00:03:21;35.40;32.06;39.63;;
67324;Laerm;57667;51.438;5.968;2023-03-19T00:03:32;34.89;31.31;39.37;;
67324;Laerm;57667;51.438;5.968;2023-03-19T00:03:42;36.24;30.57;46.97;;
67324;Laerm;57667;51.438;5.968;2023-03-19T00:03:53;32.91;30.03;35.83;;
67324;Laerm;57667;51.438;5.968;2023-03-19T00:04:03;35.38;31.16;41.93;;
67324;Laerm;57667;51.438;5.968;2023-03-19T00:04:14;38.44;34.11;41.98;;
67324;Laerm;57667;51.438;5.968;2023-03-19T00:04:25;37.03;31.08;43.49;;
67324;Laerm;57667;51.438;5.968;2023-03-19T00:04:36;33.95;31.37;37.87;;
67324;Laerm;57667;51.438;5.968;2023-03-19T00:04:46;36.91;33.61;46.95;;
67324;Laerm;57667;51.438;5.968;2023-03-19T00:04:57;35.59;31.78;39.94;;
67324;Laerm;57667;51.438;5.968;2023-03-19T00:05:07;35.73;32.72;39.96;;
67324;Laerm;57667;51.438;5.968;2023-03-19T00:05:18;33.67;30.90;37.09;;
67324;Laerm;57667;51.438;5.968;2023-03-19T00:05:28;37.57;32.92;43.66;;
67324;Laerm;57667;51.438;5.968;2023-03-19T00:05:38;35.10;31.99;39.81;;
67324;Laerm;57667;51.438;5.968;2023-03-19T00:05:49;36.12;32.36;40.08;;
67324;Laerm;57667;51.438;5.968;2023-03-19T00:06:01;36.18;32.19;39.84;;
67324;Laerm;57667;51.438;5.968;2023-03-19T00:06:11;33.77;31.31;37.01;;
67324;Laerm;57667;51.438;5.968;2023-03-19T00:06:22;35.37;31.77;40.65;;
67324;Laerm;57667;51.438;5.968;2023-03-19T00:06:32;36.40;33.20;41.57;;
67324;Laerm;57667;51.438;5.968;2023-03-19T00:06:42;35.65;32.36;41.70;;
67324;Laerm;57667;51.438;5.968;2023-03-19T00:06:53;38.95;32.16;48.99;;
67324;Laerm;57667;51.438;5.968;2023-03-19T00:07:03;35.66;31.83;43.03;;
67324;Laerm;57667;51.438;5.968;2023-03-19T00:07:14;34.82;32.34;38.45;;
67324;Laerm;57667;51.438;5.968;2023-03-19T00:07:25;34.90;32.33;39.22;;
67324;Laerm;57667;51.438;5.968;2023-03-19T00:07:35;34.90;31.77;38.86;;
67324;Laerm;57667;51.438;5.968;2023-03-19T00:07:46;35.27;32.49;42.91;;
67324;Laerm;57667;51.438;5.968;2023-03-19T00:07:56;34.64;31.47;43.56;;
67324;Laerm;57667;51.438;5.968;2023-03-19T00:08:06;37.59;32.34;42.96;;
67324;Laerm;57667;51.438;5.968;2023-03-19T00:08:17;55.17;41.44;60.22;;
67324;Laerm;57667;51.438;5.968;2023-03-19T00:08:27;46.86;41.66;52.24;;
67324;Laerm;57667;51.438;5.968;2023-03-19T00:08:38;41.74;35.03;49.09;;
67324;Laerm;57667;51.438;5.968;2023-03-19T00:08:48;36.51;33.99;40.55;;
67324;Laerm;57667;51.438;5.968;2023-03-19T00:08:58;35.80;33.14;41.60;;
67324;Laerm;57667;51.438;5.968;2023-03-19T00:09:09;36.07;32.69;42.97;;
67324;Laerm;57667;51.438;5.968;2023-03-19T00:09:19;34.96;32.03;39.52;;
67324;Laerm;57667;51.438;5.968;2023-03-19T00:09:30;35.28;32.66;41.65;;
67324;Laerm;57667;51.438;5.968;2023-03-19T00:09:41;37.95;33.69;43.47;;
67324;Laerm;57667;51.438;5.968;2023-03-19T00:09:51;39.99;35.38;47.85;;
67324;Laerm;57667;51.438;5.968;2023-03-19T00:10:02;39.39;35.66;45.56;;
67324;Laerm;57667;51.438;5.968;2023-03-19T00:10:12;37.95;32.57;43.46;;
67324;Laerm;57667;51.438;5.968;2023-03-19T00:10:22;36.17;32.57;40.91;;
67324;Laerm;57667;51.438;5.968;2023-03-19T00:10:36;35.74;32.48;39.65;;
67324;Laerm;57667;51.438;5.968;2023-03-19T00:10:47;35.52;32.55;40.75;;
67324;Laerm;57667;51.438;5.968;2023-03-19T00:10:57;34.12;30.89;38.50;;
67324;Laerm;57667;51.438;5.968;2023-03-19T00:11:08;33.90;31.31;37.18;;
67324;Laerm;57667;51.438;5.968;2023-03-19T00:11:18;33.50;31.07;39.00;;
67324;Laerm;57667;51.438;5.968;2023-03-19T00:11:29;32.12;30.37;34.44;;
67324;Laerm;57667;51.438;5.968;2023-03-19T00:11:39;34.64;30.69;45.26;;
67324;Laerm;57667;51.438;5.968;2023-03-19T00:11:49;32.67;30.71;34.57;;
67324;Laerm;57667;51.438;5.968;2023-03-19T00:12:00;33.00;31.06;35.30;;
67324;Laerm;57667;51.438;5.968;2023-03-19T00:12:10;33.98;31.13;39.65;;
67324;Laerm;57667;51.438;5.968;2023-03-19T00:12:21;34.29;31.73;42.31;;
67324;Laerm;57667;51.438;5.968;2023-03-19T00:12:32;32.88;30.99;36.17;;
67324;Laerm;57667;51.438;5.968;2023-03-19T00:12:42;32.36;30.78;34.94;;
67324;Laerm;57667;51.438;5.968;2023-03-19T00:12:53;33.65;30.96;39.44;;
67324;Laerm;57667;51.438;5.968;2023-03-19T00:13:03;33.55;31.34;35.76;;
67324;Laerm;57667;51.438;5.968;2023-03-19T00:13:14;36.17;32.36;43.13;;
67324;Laerm;57667;51.438;5.968;2023-03-19T00:13:24;34.48;31.80;43.62;;
67324;Laerm;57667;51.438;5.968;2023-03-19T00:13:34;34.20;31.43;41.14;;
67324;Laerm;57667;51.438;5.968;2023-03-19T00:13:45;37.47;33.55;44.88;;
67324;Laerm;57667;51.438;5.968;2023-03-19T00:13:55;41.47;36.50;47.55;;
67324;Laerm;57667;51.438;5.968;2023-03-19T00:14:05;47.44;38.44;53.82;;
67324;Laerm;57667;51.438;5.968;2023-03-19T00:14:16;48.31;38.09;53.60;;
67324;Laerm;57667;51.438;5.968;2023-03-19T00:14:26;38.14;35.00;45.20;;
67324;Laerm;57667;51.438;5.968;2023-03-19T00:14:37;35.92;33.73;38.14;;
67324;Laerm;57667;51.438;5.968;2023-03-19T00:14:47;35.23;31.99;39.67;;
67324;Laerm;57667;51.438;5.968;2023-03-19T00:14:58;34.10;30.77;39.93;;
67324;Laerm;57667;51.438;5.968;2023-03-19T00:15:08;34.33;30.27;44.96;;
67324;Laerm;57667;51.438;5.968;2023-03-19T00:15:23;34.77;31.71;40.80;;
67324;Laerm;57667;51.438;5.968;2023-03-19T00:15:33;35.50;32.27;39.42;;
67324;Laerm;57667;51.438;5.968;2023-03-19T00:15:43;34.35;31.81;37.23;;
67324;Laerm;57667;51.438;5.968;2023-03-19T00:15:54;34.95;32.46;38.49;;
67324;Laerm;57667;51.438;5.968;2023-03-19T00:16:05;35.22;32.41;37.87;;
67324;Laerm;57667;51.438;5.968;2023-03-19T00:16:15;35.72;32.83;38.66;;
67324;Laerm;57667;51.438;5.968;2023-03-19T00:16:26;36.99;34.28;41.95;;
67324;Laerm;57667;51.438;5.968;2023-03-19T00:16:36;36.98;34.14;42.00;;
67324;Laerm;57667;51.438;5.968;2023-03-19T00:16:46;35.40;32.90;38.16;;
67324;Laerm;57667;51.438;5.968;2023-03-19T00:16:57;35.49;32.82;39.65;;
67324;Laerm;57667;51.438;5.968;2023-03-19T00:17:07;34.63;32.46;41.85;;
67324;Laerm;57667;51.438;5.968;2023-03-19T00:17:17;36.69;33.41;42.42;;
67324;Laerm;57667;51.438;5.968;2023-03-19T00:17:28;51.29;38.69;56.33;;
67324;Laerm;57667;51.438;5.968;2023-03-19T00:17:38;47.70;39.52;54.41;;
67324;Laerm;57667;51.438;5.968;2023-03-19T00:17:49;40.07;36.89;44.15;;
67324;Laerm;57667;51.438;5.968;2023-03-19T00:17:59;36.70;33.93;45.32;;
67324;Laerm;57667;51.438;5.968;2023-03-19T00:18:09;34.28;31.92;37.47;;
67324;Laerm;57667;51.438;5.968;2023-03-19T00:18:20;34.79;32.27;37.83;;
67324;Laerm;57667;51.438;5.968;2023-03-19T00:18:30;34.61;31.62;38.01;;
67324;Laerm;57667;51.438;5.968;2023-03-19T00:18:40;34.84;31.64;40.16;;
67324;Laerm;57667;51.438;5.968;2023-03-19T00:18:51;33.39;31.31;36.92;;
67324;Laerm;57667;51.438;5.968;2023-03-19T00:19:02;33.41;31.32;37.72;;
67324;Laerm;57667;51.438;5.968;2023-03-19T00:19:12;33.18;30.74;38.47;;
67324;Laerm;57667;51.438;5.968;2023-03-19T00:19:23;34.24;31.72;37.98;;
67324;Laerm;57667;51.438;5.968;2023-03-19T00:19:34;33.19;30.56;43.94;;
67324;Laerm;57667;51.438;5.968;2023-03-19T00:19:44;34.28;31.22;37.45;;
67324;Laerm;57667;51.438;5.968;2023-03-19T00:19:54;65.39;36.64;76.32;;
67324;Laerm;57667;51.438;5.968;2023-03-19T00:20:06;73.15;70.80;76.48;;
67324;Laerm;57667;51.438;5.968;2023-03-19T00:20:17;72.31;66.62;74.35;;
67324;Laerm;57667;51.438;5.968;2023-03-19T00:20:29;60.64;49.55;67.88;;
67324;Laerm;57667;51.438;5.968;2023-03-19T00:20:39;49.33;41.63;59.66;;
67324;Laerm;57667;51.438;5.968;2023-03-19T00:20:49;39.86;36.49;44.14;;
67324;Laerm;57667;51.438;5.968;2023-03-19T00:21:00;37.02;34.07;40.97;;
67324;Laerm;57667;51.438;5.968;2023-03-19T00:21:11;35.28;32.33;39.02;;
67324;Laerm;57667;51.438;5.968;2023-03-19T00:21:21;34.66;30.53;38.49;;
67324;Laerm;57667;51.438;5.968;2023-03-19T00:21:32;32.94;30.92;36.54;;
67324;Laerm;57667;51.438;5.968;2023-03-19T00:21:42;33.01;30.95;37.39;;
67324;Laerm;57667;51.438;5.968;2023-03-19T00:21:52;32.51;30.16;34.90;;
67324;Laerm;57667;51.438;5.968;2023-03-19T00:22:03;33.03;30.66;36.24;;
67324;Laerm;57667;51.438;5.968;2023-03-19T00:22:13;32.10;29.87;39.56;;
67324;Laerm;57667;51.438;5.968;2023-03-19T00:22:24;32.07;29.91;38.55;;
67324;Laerm;57667;51.438;5.968;2023-03-19T00:22:34;33.26;30.44;38.63;;
67324;Laerm;57667;51.438;5.968;2023-03-19T00:22:45;34.93;30.82;37.67;;
67324;Laerm;57667;51.438;5.968;2023-03-19T00:22:55;33.25;30.38;35.98;;
67324;Laerm;57667;51.438;5.968;2023-03-19T00:23:05;32.24;30.58;33.79;;
67324;Laerm;57667;51.438;5.968;2023-03-19T00:23:16;32.22;30.06;37.91;;
67324;Laerm;57667;51.438;5.968;2023-03-19T00:23:26;32.31;30.79;37.34;;
67324;Laerm;57667;51.438;5.968;2023-03-19T00:23:37;32.90;30.53;34.86;;
67324;Laerm;57667;51.438;5.968;2023-03-19T00:23:47;32.60;30.53;37.73;;
67324;Laerm;57667;51.438;5.968;2023-03-19T00:23:58;32.25;30.45;34.65;;
67324;Laerm;57667;51.438;5.968;2023-03-19T00:24:11;32.87;30.60;39.48;;
67324;Laerm;57667;51.438;5.968;2023-03-19T00:24:21;32.46;30.51;35.32;;
67324;Laerm;57667;51.438;5.968;2023-03-19T00:24:32;32.39;30.09;33.97;;
67324;Laerm;57667;51.438;5.968;2023-03-19T00:24:43;32.41;30.02;38.01;;
67324;Laerm;57667;51.438;5.968;2023-03-19T00:24:53;32.79;30.79;37.71;;
67324;Laerm;57667;51.438;5.968;2023-03-19T00:25:04;33.78;31.42;37.44;;
67324;Laerm;57667;51.438;5.968;2023-03-19T00:25:14;35.33;33.28;42.93;;
67324;Laerm;57667;51.438;5.968;2023-03-19T00:25:25;36.76;33.46;40.76;;
67324;Laerm;57667;51.438;5.968;2023-03-19T00:25:35;40.84;37.05;46.15;;
67324;Laerm;57667;51.438;5.968;2023-03-19T00:25:46;48.71;41.39;55.19;;
67324;Laerm;57667;51.438;5.968;2023-03-19T00:25:56;51.77;39.84;56.01;;
67324;Laerm;57667;51.438;5.968;2023-03-19T00:26:06;37.51;33.53;42.13;;
67324;Laerm;57667;51.438;5.968;2023-03-19T00:26:17;34.83;32.90;37.64;;
67324;Laerm;57667;51.438;5.968;2023-03-19T00:26:31;34.33;32.30;36.14;;
67324;Laerm;57667;51.438;5.968;2023-03-19T00:26:42;34.32;32.03;39.80;;
67324;Laerm;57667;51.438;5.968;2023-03-19T00:26:52;35.10;32.24;39.32;;
67324;Laerm;57667;51.438;5.968;2023-03-19T00:27:03;36.39;33.54;42.60;;
67324;Laerm;57667;51.438;5.968;2023-03-19T00:27:13;39.70;35.88;47.33;;
67324;Laerm;57667;51.438;5.968;2023-03-19T00:27:23;39.57;35.74;43.65;;
67324;Laerm;57667;51.438;5.968;2023-03-19T00:27:34;37.97;35.31;41.90;;
67324;Laerm;57667;51.438;5.968;2023-03-19T00:27:45;38.89;33.27;45.02;;
67324;Laerm;57667;51.438;5.968;2023-03-19T00:27:55;37.84;33.47;41.98;;
67324;Laerm;57667;51.438;5.968;2023-03-19T00:28:06;35.83;32.49;42.30;;
67324;Laerm;57667;51.438;5.968;2023-03-19T00:28:16;36.91;34.41;39.38;;
67324;Laerm;57667;51.438;5.968;2023-03-19T00:28:27;41.16;36.80;46.84;;
67324;Laerm;57667;51.438;5.968;2023-03-19T00:28:37;57.94;46.10;62.27;;
67324;Laerm;57667;51.438;5.968;2023-03-19T00:28:48;49.29;44.41;55.34;;
67324;Laerm;57667;51.438;5.968;2023-03-19T00:28:58;41.77;35.64;48.70;;
67324;Laerm;57667;51.438;5.968;2023-03-19T00:29:08;38.09;35.32;40.85;;
67324;Laerm;57667;51.438;5.968;2023-03-19T00:29:19;35.75;33.54;38.11;;
67324;Laerm;57667;51.438;5.968;2023-03-19T00:29:29;35.18;32.73;40.43;;
67324;Laerm;57667;51.438;5.968;2023-03-19T00:29:40;34.60;31.57;48.38;;
67324;Laerm;57667;51.438;5.968;2023-03-19T00:29:50;33.52;31.83;35.79;;
67324;Laerm;57667;51.438;5.968;2023-03-19T00:30:00;34.89;31.93;38.43;;
67324;Laerm;57667;51.438;5.968;2023-03-19T00:30:11;35.09;31.84;40.86;;
67324;Laerm;57667;51.438;5.968;2023-03-19T00:30:22;35.55;31.62;42.84;;
67324;Laerm;57667;51.438;5.968;2023-03-19T00:30:33;34.38;30.83;40.40;;
67324;Laerm;57667;51.438;5.968;2023-03-19T00:30:43;33.58;31.69;38.64;;
67324;Laerm;57667;51.438;5.968;2023-03-19T00:30:54;34.13;31.74;40.58;;
67324;Laerm;57667;51.438;5.968;2023-03-19T00:31:06;33.16;31.39;35.54;;
67324;Laerm;57667;51.438;5.968;2023-03-19T00:31:17;32.99;30.91;36.72;;
67324;Laerm;57667;51.438;5.968;2023-03-19T00:31:27;34.41;31.25;39.28;;
67324;Laerm;57667;51.438;5.968;2023-03-19T00:31:38;34.28;31.63;37.98;;
67324;Laerm;57667;51.438;5.968;2023-03-19T00:31:49;35.25;32.21;39.03;;
67324;Laerm;57667;51.438;5.968;2023-03-19T00:32:00;34.18;31.33;37.74;;
67324;Laerm;57667;51.438;5.968;2023-03-19T00:32:11;33.30;30.91;39.52;;
67324;Laerm;57667;51.438;5.968;2023-03-19T00:32:21;33.96;31.33;41.72;;
67324;Laerm;57667;51.438;5.968;2023-03-19T00:32:32;34.41;31.97;38.74;;
67324;Laerm;57667;51.438;5.968;2023-03-19T00:32:43;34.08;31.97;38.14;;
67324;Laerm;57667;51.438;5.968;2023-03-19T00:32:53;35.11;31.98;38.54;;
67324;Laerm;57667;51.438;5.968;2023-03-19T00:33:03;36.02;32.28;39.46;;
67324;Laerm;57667;51.438;5.968;2023-03-19T00:33:13;36.24;32.40;41.84;;
67324;Laerm;57667;51.438;5.968;2023-03-19T00:33:24;36.34;32.84;41.52;;
67324;Laerm;57667;51.438;5.968;2023-03-19T00:33:35;34.29;31.28;37.50;;
67324;Laerm;57667;51.438;5.968;2023-03-19T00:33:46;34.25;31.43;38.37;;
67324;Laerm;57667;51.438;5.968;2023-03-19T00:33:56;34.50;31.40;37.84;;
67324;Laerm;57667;51.438;5.968;2023-03-19T00:34:07;34.20;31.98;38.10;;
67324;Laerm;57667;51.438;5.968;2023-03-19T00:34:18;34.03;31.52;36.31;;
67324;Laerm;57667;51.438;5.968;2023-03-19T00:34:29;33.98;31.78;37.24;;
67324;Laerm;57667;51.438;5.968;2023-03-19T00:34:39;34.28;31.57;36.48;;
67324;Laerm;57667;51.438;5.968;2023-03-19T00:34:50;34.81;31.74;39.58;;
67324;Laerm;57667;51.438;5.968;2023-03-19T00:35:00;34.07;32.27;39.05;;
67324;Laerm;57667;51.438;5.968;2023-03-19T00:35:11;35.20;32.96;38.24;;
67324;Laerm;57667;51.438;5.968;2023-03-19T00:35:21;34.82;31.81;39.38;;
67324;Laerm;57667;51.438;5.968;2023-03-19T00:35:31;34.08;31.59;38.10;;
67324;Laerm;57667;51.438;5.968;2023-03-19T00:35:42;34.41;31.37;37.83;;
67324;Laerm;57667;51.438;5.968;2023-03-19T00:35:52;32.73;30.52;34.67;;
67324;Laerm;57667;51.438;5.968;2023-03-19T00:36:03;33.98;30.63;37.27;;
67324;Laerm;57667;51.438;5.968;2023-03-19T00:36:14;33.63;30.58;37.24;;
67324;Laerm;57667;51.438;5.968;2023-03-19T00:36:28;32.30;30.58;35.99;;
67324;Laerm;57667;51.438;5.968;2023-03-19T00:36:39;32.13;30.09;35.64;;
67324;Laerm;57667;51.438;5.968;2023-03-19T00:36:49;32.39;30.61;36.63;;
67324;Laerm;57667;51.438;5.968;2023-03-19T00:36:59;37.70;31.12;50.14;;
67324;Laerm;57667;51.438;5.968;2023-03-19T00:37:10;34.59;31.36;42.79;;
67324;Laerm;57667;51.438;5.968;2023-03-19T00:37:21;36.06;30.64;47.18;;
67324;Laerm;57667;51.438;5.968;2023-03-19T00:37:31;32.85;30.09;37.23;;
67324;Laerm;57667;51.438;5.968;2023-03-19T00:37:41;32.82;30.82;39.08;;
67324;Laerm;57667;51.438;5.968;2023-03-19T00:37:52;32.25;30.60;34.37;;
67324;Laerm;57667;51.438;5.968;2023-03-19T00:38:02;32.92;30.61;36.29;;
67324;Laerm;57667;51.438;5.968;2023-03-19T00:38:13;32.87;30.82;35.70;;
67324;Laerm;57667;51.438;5.968;2023-03-19T00:38:23;32.85;30.94;34.80;;
67324;Laerm;57667;51.438;5.968;2023-03-19T00:38:34;32.94;30.97;35.60;;
67324;Laerm;57667;51.438;5.968;2023-03-19T00:38:45;33.08;30.45;35.81;;
67324;Laerm;57667;51.438;5.968;2023-03-19T00:38:55;34.19;31.43;37.26;;
67324;Laerm;57667;51.438;5.968;2023-03-19T00:39:06;36.30;31.85;46.83;;
67324;Laerm;57667;51.438;5.968;2023-03-19T00:39:17;36.90;32.16;44.13;;
67324;Laerm;57667;51.438;5.968;2023-03-19T00:39:28;35.49;31.97;40.32;;
67324;Laerm;57667;51.438;5.968;2023-03-19T00:39:38;34.98;32.78;38.76;;
67324;Laerm;57667;51.438;5.968;2023-03-19T00:39:48;35.20;31.97;38.74;;
67324;Laerm;57667;51.438;5.968;2023-03-19T00:39:59;34.33;31.82;37.85;;
67324;Laerm;57667;51.438;5.968;2023-03-19T00:40:09;33.83;31.57;38.89;;
67324;Laerm;57667;51.438;5.968;2023-03-19T00:40:20;33.11;31.01;36.00;;
67324;Laerm;57667;51.438;5.968;2023-03-19T00:40:31;32.61;30.59;36.60;;
67324;Laerm;57667;51.438;5.968;2023-03-19T00:40:42;32.55;30.13;36.20;;
67324;Laerm;57667;51.438;5.968;2023-03-19T00:40:52;32.93;30.89;38.42;;
67324;Laerm;57667;51.438;5.968;2023-03-19T00:41:03;32.09;30.43;34.84;;
67324;Laerm;57667;51.438;5.968;2023-03-19T00:41:14;32.92;31.06;36.64;;
67324;Laerm;57667;51.438;5.968;2023-03-19T00:41:27;33.57;31.05;39.01;;
67324;Laerm;57667;51.438;5.968;2023-03-19T00:41:38;35.70;30.09;53.23;;
67324;Laerm;57667;51.438;5.968;2023-03-19T00:41:48;32.24;30.21;35.56;;
67324;Laerm;57667;51.438;5.968;2023-03-19T00:41:59;32.40;30.64;34.54;;
67324;Laerm;57667;51.438;5.968;2023-03-19T00:42:10;33.28;31.23;38.11;;
67324;Laerm;57667;51.438;5.968;2023-03-19T00:42:21;33.98;31.13;37.16;;
67324;Laerm;57667;51.438;5.968;2023-03-19T00:42:31;33.69;31.20;37.17;;
67324;Laerm;57667;51.438;5.968;2023-03-19T00:42:41;32.94;30.58;36.97;;
67324;Laerm;57667;51.438;5.968;2023-03-19T00:42:53;34.75;31.52;38.56;;
67324;Laerm;57667;51.438;5.968;2023-03-19T00:43:04;34.96;32.31;37.30;;
67324;Laerm;57667;51.438;5.968;2023-03-19T00:43:15;35.54;32.81;37.65;;
67324;Laerm;57667;51.438;5.968;2023-03-19T00:43:25;34.71;31.79;40.58;;
67324;Laerm;57667;51.438;5.968;2023-03-19T00:43:36;33.68;31.30;37.65;;
67324;Laerm;57667;51.438;5.968;2023-03-19T00:43:51;34.20;30.65;37.22;;
67324;Laerm;57667;51.438;5.968;2023-03-19T00:44:01;33.16;30.66;36.46;;
67324;Laerm;57667;51.438;5.968;2023-03-19T00:44:12;35.66;31.78;40.54;;
67324;Laerm;57667;51.438;5.968;2023-03-19T00:44:23;36.33;32.91;40.56;;
67324;Laerm;57667;51.438;5.968;2023-03-19T00:44:33;34.90;32.14;38.18;;
67324;Laerm;57667;51.438;5.968;2023-03-19T00:44:43;34.28;31.29;37.23;;
67324;Laerm;57667;51.438;5.968;2023-03-19T00:44:54;36.30;33.01;40.55;;
67324;Laerm;57667;51.438;5.968;2023-03-19T00:45:05;36.91;33.02;39.87;;
67324;Laerm;57667;51.438;5.968;2023-03-19T00:45:15;35.82;32.45;39.39;;
67324;Laerm;57667;51.438;5.968;2023-03-19T00:45:25;36.29;33.40;38.94;;
67324;Laerm;57667;51.438;5.968;2023-03-19T00:45:36;37.96;35.92;40.74;;
67324;Laerm;57667;51.438;5.968;2023-03-19T00:45:46;43.50;38.40;48.01;;
67324;Laerm;57667;51.438;5.968;2023-03-19T00:45:57;49.58;43.35;54.89;;
67324;Laerm;57667;51.438;5.968;2023-03-19T00:46:07;48.68;42.67;56.30;;
67324;Laerm;57667;51.438;5.968;2023-03-19T00:46:18;46.55;44.22;48.54;;
67324;Laerm;57667;51.438;5.968;2023-03-19T00:46:28;44.67;41.31;49.02;;
67324;Laerm;57667;51.438;5.968;2023-03-19T00:46:38;43.34;41.12;45.59;;
67324;Laerm;57667;51.438;5.968;2023-03-19T00:46:49;43.98;40.75;46.38;;
67324;Laerm;57667;51.438;5.968;2023-03-19T00:46:59;47.11;43.73;49.77;;
67324;Laerm;57667;51.438;5.968;2023-03-19T00:47:10;47.80;44.79;51.81;;
67324;Laerm;57667;51.438;5.968;2023-03-19T00:47:20;46.41;42.75;49.88;;
67324;Laerm;57667;51.438;5.968;2023-03-19T00:47:31;55.06;45.46;59.70;;
67324;Laerm;57667;51.438;5.968;2023-03-19T00:47:41;43.98;41.31;47.15;;
67324;Laerm;57667;51.438;5.968;2023-03-19T00:47:52;42.34;40.59;44.18;;
67324;Laerm;57667;51.438;5.968;2023-03-19T00:48:03;42.48;41.01;44.57;;
67324;Laerm;57667;51.438;5.968;2023-03-19T00:48:13;41.46;37.67;44.59;;
67324;Laerm;57667;51.438;5.968;2023-03-19T00:48:23;39.18;37.02;41.18;;
67324;Laerm;57667;51.438;5.968;2023-03-19T00:48:34;39.20;37.28;41.40;;
67324;Laerm;57667;51.438;5.968;2023-03-19T00:48:45;39.25;37.44;42.72;;
67324;Laerm;57667;51.438;5.968;2023-03-19T00:48:55;38.92;37.05;42.49;;
67324;Laerm;57667;51.438;5.968;2023-03-19T00:49:05;40.11;37.60;46.51;;
67324;Laerm;57667;51.438;5.968;2023-03-19T00:49:16;40.46;37.54;44.61;;
67324;Laerm;57667;51.438;5.968;2023-03-19T00:49:26;39.43;36.98;42.58;;
67324;Laerm;57667;51.438;5.968;2023-03-19T00:49:37;40.88;37.01;50.07;;
67324;Laerm;57667;51.438;5.968;2023-03-19T00:49:47;41.39;35.89;49.21;;
67324;Laerm;57667;51.438;5.968;2023-03-19T00:49:57;40.29;35.62;44.26;;
67324;Laerm;57667;51.438;5.968;2023-03-19T00:50:08;36.96;34.36;40.81;;
67324;Laerm;57667;51.438;5.968;2023-03-19T00:50:18;37.16;35.18;39.27;;
67324;Laerm;57667;51.438;5.968;2023-03-19T00:50:29;34.16;30.70;38.07;;
67324;Laerm;57667;51.438;5.968;2023-03-19T00:50:39;32.20;30.22;35.21;;
67324;Laerm;57667;51.438;5.968;2023-03-19T00:50:50;32.74;30.69;36.78;;
67324;Laerm;57667;51.438;5.968;2023-03-19T00:51:08;35.04;30.74;47.69;;
67324;Laerm;57667;51.438;5.968;2023-03-19T00:51:18;32.65;30.41;41.33;;
67324;Laerm;57667;51.438;5.968;2023-03-19T00:51:29;32.76;30.39;36.31;;
67324;Laerm;57667;51.438;5.968;2023-03-19T00:51:39;35.50;32.00;38.15;;
67324;Laerm;57667;51.438;5.968;2023-03-19T00:51:52;35.19;31.77;39.46;;
67324;Laerm;57667;51.438;5.968;2023-03-19T00:52:03;34.76;32.16;37.86;;
67324;Laerm;57667;51.438;5.968;2023-03-19T00:52:13;33.22;31.02;36.00;;
67324;Laerm;57667;51.438;5.968;2023-03-19T00:52:23;33.90;31.27;36.59;;
67324;Laerm;57667;51.438;5.968;2023-03-19T00:52:34;32.83;30.98;35.22;;
67324;Laerm;57667;51.438;5.968;2023-03-19T00:52:44;33.33;30.85;46.12;;
67324;Laerm;57667;51.438;5.968;2023-03-19T00:52:54;32.95;30.61;38.24;;
67324;Laerm;57667;51.438;5.968;2023-03-19T00:53:06;34.25;29.86;38.75;;
67324;Laerm;57667;51.438;5.968;2023-03-19T00:53:16;33.25;29.62;39.34;;
67324;Laerm;57667;51.438;5.968;2023-03-19T00:53:26;33.03;30.08;39.99;;
67324;Laerm;57667;51.438;5.968;2023-03-19T00:53:37;33.17;30.33;38.36;;
67324;Laerm;57667;51.438;5.968;2023-03-19T00:53:48;34.28;30.39;43.36;;
67324;Laerm;57667;51.438;5.968;2023-03-19T00:53:58;34.55;30.64;38.34;;
67324;Laerm;57667;51.438;5.968;2023-03-19T00:54:12;35.38;32.15;38.79;;
67324;Laerm;57667;51.438;5.968;2023-03-19T00:54:22;35.09;32.21;38.40;;
67324;Laerm;57667;51.438;5.968;2023-03-19T00:54:32;36.08;32.23;42.56;;
67324;Laerm;57667;51.438;5.968;2023-03-19T00:54:43;35.34;32.52;38.06;;
67324;Laerm;57667;51.438;5.968;2023-03-19T00:54:53;35.97;32.74;41.32;;
67324;Laerm;57667;51.438;5.968;2023-03-19T00:55:04;36.24;32.96;38.65;;
67324;Laerm;57667;51.438;5.968;2023-03-19T00:55:15;36.13;31.57;41.33;;
67324;Laerm;57667;51.438;5.968;2023-03-19T00:55:25;35.36;32.36;39.42;;
67324;Laerm;57667;51.438;5.968;2023-03-19T00:55:36;34.89;32.23;37.68;;
67324;Laerm;57667;51.438;5.968;2023-03-19T00:55:46;33.55;31.08;36.82;;
67324;Laerm;57667;51.438;5.968;2023-03-19T00:55:57;32.02;29.94;34.72;;
67324;Laerm;57667;51.438;5.968;2023-03-19T00:56:07;32.98;30.47;35.85;;
67324;Laerm;57667;51.438;5.968;2023-03-19T00:56:18;32.39;30.42;35.08;;
67324;Laerm;57667;51.438;5.968;2023-03-19T00:56:29;31.95;29.84;34.86;;
67324;Laerm;57667;51.438;5.968;2023-03-19T00:56:39;31.99;30.13;36.25;;
67324;Laerm;57667;51.438;5.968;2023-03-19T00:56:50;31.50;29.53;32.96;;
67324;Laerm;57667;51.438;5.968;2023-03-19T00:57:00;32.69;31.17;36.88;;
67324;Laerm;57667;51.438;5.968;2023-03-19T00:57:10;32.83;30.69;36.12;;
67324;Laerm;57667;51.438;5.968;2023-03-19T00:57:21;32.26;30.02;34.71;;
67324;Laerm;57667;51.438;5.968;2023-03-19T00:57:31;32.55;30.01;35.90;;
67324;Laerm;57667;51.438;5.968;2023-03-19T00:57:41;32.09;29.39;37.25;;
67324;Laerm;57667;51.438;5.968;2023-03-19T00:57:52;31.46;29.77;34.36;;
67324;Laerm;57667;51.438;5.968;2023-03-19T00:58:02;31.03;29.70;32.93;;
67324;Laerm;57667;51.438;5.968;2023-03-19T00:58:12;32.18;30.31;35.18;;
67324;Laerm;57667;51.438;5.968;2023-03-19T00:58:23;32.56;30.64;37.18;;
67324;Laerm;57667;51.438;5.968;2023-03-19T00:58:33;33.58;30.74;39.03;;
67324;Laerm;57667;51.438;5.968;2023-03-19T00:58:44;33.86;30.72;38.64;;
67324;Laerm;57667;51.438;5.968;2023-03-19T00:58:55;33.16;30.71;36.76;;
67324;Laerm;57667;51.438;5.968;2023-03-19T00:59:05;32.57;30.01;37.10;;
67324;Laerm;57667;51.438;5.968;2023-03-19T00:59:16;32.18;30.32;36.33;;
67324;Laerm;57667;51.438;5.968;2023-03-19T00:59:26;32.87;30.58;36.80;;
67324;Laerm;57667;51.438;5.968;2023-03-19T00:59:36;33.81;30.84;42.04;;